TimeMDT,TemperatureF,Dew PointF,Humidity,Sea Level PressureIn,VisibilityMPH,Wind Direction,Wind SpeedMPH,Gust SpeedMPH,PrecipitationIn,Events,Conditions,WindDirDegrees,DateUTC
12:16 AM,55.4,51.8,88,30.42,10.0,Calm,Calm,-,N/A,,Scattered Clouds,0,2013-09-07 06:16:00
12:36 AM,55.4,51.8,88,30.42,10.0,Calm,Calm,-,N/A,,Scattered Clouds,0,2013-09-07 06:36:00
12:56 AM,55.4,51.8,88,30.41,10.0,SW,3.5,-,N/A,,Scattered Clouds,230,2013-09-07 06:56:00
1:16 AM,53.6,50.0,88,30.41,10.0,SSW,3.5,-,N/A,,Scattered Clouds,200,2013-09-07 07:16:00
1:36 AM,53.6,50.0,88,30.41,10.0,Calm,Calm,-,N/A,,Scattered Clouds,0,2013-09-07 07:36:00
1:56 AM,53.6,50.0,88,30.40,10.0,Calm,Calm,-,N/A,,Clear,0,2013-09-07 07:56:00
2:16 AM,53.6,50.0,88,30.41,10.0,Calm,Calm,-,N/A,,Clear,0,2013-09-07 08:16:00
2:36 AM,53.6,50.0,88,30.40,10.0,Calm,Calm,-,N/A,,Clear,0,2013-09-07 08:36:00
2:56 AM,51.8,48.2,88,30.40,10.0,East,3.5,-,N/A,,Clear,90,2013-09-07 08:56:00
3:16 AM,51.8,48.2,88,30.40,10.0,Calm,Calm,-,N/A,,Clear,0,2013-09-07 09:16:00
3:36 AM,51.8,48.2,88,30.40,10.0,Calm,Calm,-,N/A,,Clear,0,2013-09-07 09:36:00
3:56 AM,51.8,48.2,88,30.40,10.0,Calm,Calm,-,N/A,,Clear,0,2013-09-07 09:56:00
4:15 AM,51.8,48.2,88,30.40,10.0,Calm,Calm,-,N/A,,Clear,0,2013-09-07 10:15:00
4:36 AM,50.0,46.4,87,30.40,5.0,Calm,Calm,-,N/A,,Clear,0,2013-09-07 10:36:00
4:56 AM,50.0,46.4,87,30.41,10.0,Calm,Calm,-,N/A,,Clear,0,2013-09-07 10:56:00
5:16 AM,50.0,46.4,87,30.41,10.0,Calm,Calm,-,N/A,,Clear,0,2013-09-07 11:16:00
5:36 AM,46.4,44.6,93,30.41,0.5,Calm,Calm,-,N/A,Fog,Fog,0,2013-09-07 11:36:00
5:56 AM,48.2,46.4,93,30.41,1.5,Calm,Calm,-,N/A,,Mostly Cloudy,0,2013-09-07 11:56:00
6:16 AM,50.0,46.4,87,30.41,0.2,Calm,Calm,-,N/A,Fog,Fog,0,2013-09-07 12:16:00
6:36 AM,50.0,46.4,87,30.41,1.2,Calm,Calm,-,N/A,,Mostly Cloudy,0,2013-09-07 12:36:00
6:56 AM,46.4,44.6,93,30.42,0.5,Calm,Calm,-,N/A,Fog,Fog,0,2013-09-07 12:56:00
7:16 AM,46.4,44.6,93,30.42,0.2,Calm,Calm,-,N/A,Fog,Fog,0,2013-09-07 13:16:00
7:36 AM,50.0,46.4,87,30.42,0.2,Calm,Calm,-,N/A,Fog,Fog,0,2013-09-07 13:36:00
7:56 AM,50.0,46.4,87,30.42,0.5,Calm,Calm,-,N/A,Fog,Fog,0,2013-09-07 13:56:00
8:15 AM,50.0,46.4,87,30.42,10.0,Calm,Calm,-,N/A,,Mostly Cloudy,0,2013-09-07 14:15:00
8:36 AM,51.8,48.2,88,30.42,10.0,Calm,Calm,-,N/A,,Scattered Clouds,0,2013-09-07 14:36:00
8:56 AM,53.6,50.0,88,30.42,10.0,Calm,Calm,-,N/A,,Clear,0,2013-09-07 14:56:00
9:16 AM,53.6,46.4,77,30.42,10.0,Calm,Calm,-,N/A,,Clear,0,2013-09-07 15:16:00
9:36 AM,55.4,48.2,77,30.41,10.0,Calm,Calm,-,N/A,,Clear,0,2013-09-07 15:36:00
9:56 AM,59.0,50.0,72,30.41,10.0,Calm,Calm,-,N/A,,Clear,0,2013-09-07 15:56:00
10:16 AM,60.8,48.2,63,30.41,10.0,Calm,Calm,-,N/A,,Clear,0,2013-09-07 16:16:00
10:36 AM,60.8,50.0,68,30.41,10.0,Calm,Calm,-,N/A,,Clear,0,2013-09-07 16:36:00
10:56 AM,64.4,50.0,59,30.40,10.0,Calm,Calm,-,N/A,,Clear,0,2013-09-07 16:56:00
11:16 AM,64.4,50.0,59,30.40,10.0,Calm,Calm,-,N/A,,Clear,0,2013-09-07 17:16:00
11:36 AM,68.0,51.8,56,30.39,10.0,Calm,Calm,-,N/A,,Clear,0,2013-09-07 17:36:00
11:56 AM,69.8,50.0,49,30.38,10.0,Calm,Calm,-,N/A,,Clear,0,2013-09-07 17:56:00
12:15 PM,71.6,50.0,46,30.36,10.0,Calm,Calm,-,N/A,,Clear,0,2013-09-07 18:15:00
12:36 PM,73.4,50.0,44,30.35,10.0,West,3.5,-,N/A,,Clear,280,2013-09-07 18:36:00
12:55 PM,75.2,42.8,31,30.33,10.0,Calm,Calm,-,N/A,,Clear,0,2013-09-07 18:55:00
1:16 PM,77.0,42.8,29,30.32,10.0,Calm,Calm,-,N/A,,Clear,0,2013-09-07 19:16:00
1:36 PM,78.8,41.0,26,30.30,10.0,Calm,Calm,-,N/A,,Clear,0,2013-09-07 19:36:00
1:56 PM,80.6,33.8,18,30.30,10.0,Calm,Calm,-,N/A,Thunderstorm,Clear,0,2013-09-07 19:56:00
2:16 PM,80.6,33.8,18,30.29,10.0,Calm,Calm,-,N/A,,Clear,0,2013-09-07 20:16:00
2:35 PM,82.4,33.8,17,30.27,10.0,Calm,Calm,-,N/A,,Clear,0,2013-09-07 20:35:00
2:56 PM,80.6,33.8,18,30.27,10.0,Calm,Calm,-,N/A,,Clear,0,2013-09-07 20:56:00
3:16 PM,78.8,37.4,23,30.26,10.0,SE,5.8,-,N/A,,Clear,130,2013-09-07 21:16:00
3:36 PM,77.0,39.2,26,30.26,10.0,SE,9.2,-,N/A,Thunderstorm,Clear,140,2013-09-07 21:36:00
3:56 PM,73.4,42.8,33,30.26,10.0,South,10.4,-,N/A,,Scattered Clouds,190,2013-09-07 21:56:00
4:16 PM,77.0,32.0,19,30.27,10.0,South,10.4,23.0,N/A,,Mostly Cloudy,170,2013-09-07 22:16:00
4:36 PM,77.0,32.0,19,30.26,10.0,SE,8.1,-,N/A,Thunderstorm,Mostly Cloudy,140,2013-09-07 22:36:00
4:56 PM,73.4,35.6,25,30.27,10.0,Calm,Calm,-,N/A,Thunderstorm,Mostly Cloudy,0,2013-09-07 22:56:00
5:16 PM,69.8,44.6,40,30.29,10.0,WSW,24.2,36.8,N/A,Rain-Thunderstorm,Light Thunderstorms and Rain,240,2013-09-07 23:16:00
5:35 PM,66.2,44.6,46,30.29,10.0,West,24.2,31.1,N/A,Rain-Thunderstorm,Light Thunderstorms and Rain,270,2013-09-07 23:35:00
5:56 PM,69.8,42.8,38,30.29,10.0,WNW,10.4,21.9,N/A,,Overcast,290,2013-09-07 23:56:00
6:16 PM,64.4,46.4,52,30.28,7.0,West,5.8,10.4,0.02,Rain-Thunderstorm,Heavy Thunderstorms and Rain,280,2013-09-08 00:16:00
6:36 PM,60.8,50.0,68,30.34,5.0,South,12.7,23.0,0.07,Rain-Thunderstorm,Heavy Thunderstorms and Rain,190,2013-09-08 00:36:00
6:55 PM,59.0,50.0,72,30.35,7.0,SW,3.5,-,0.10,Rain-Thunderstorm,Thunderstorms and Rain,230,2013-09-08 00:55:00
7:16 PM,59.0,51.8,77,30.35,10.0,East,6.9,-,N/A,Thunderstorm,Unknown,90,2013-09-08 01:16:00
7:36 PM,59.0,51.8,77,30.34,10.0,ESE,3.5,-,N/A,Rain,Light Rain,120,2013-09-08 01:36:00
7:56 PM,59.0,50.0,72,30.33,10.0,South,6.9,-,N/A,,Light Drizzle,190,2013-09-08 01:56:00
8:16 PM,59.0,50.0,72,30.34,10.0,SSW,3.5,-,N/A,Rain,Light Rain,210,2013-09-08 02:16:00
8:36 PM,59.0,50.0,72,30.34,10.0,West,4.6,-,N/A,,Light Drizzle,260,2013-09-08 02:36:00
8:56 PM,59.0,50.0,72,30.35,10.0,Calm,Calm,-,N/A,,Overcast,0,2013-09-08 02:56:00
9:16 PM,59.0,51.8,77,30.36,10.0,Calm,Calm,-,N/A,,Mostly Cloudy,0,2013-09-08 03:16:00
9:36 PM,59.0,51.8,77,30.37,10.0,Calm,Calm,-,N/A,,Mostly Cloudy,0,2013-09-08 03:36:00
9:55 PM,57.2,51.8,82,30.37,10.0,Calm,Calm,-,N/A,,Overcast,0,2013-09-08 03:55:00
10:16 PM,55.4,51.8,88,30.37,10.0,Calm,Calm,-,N/A,,Mostly Cloudy,0,2013-09-08 04:16:00
10:36 PM,55.4,51.8,88,30.36,10.0,East,4.6,-,N/A,,Scattered Clouds,80,2013-09-08 04:36:00
10:56 PM,55.4,51.8,88,30.36,10.0,ESE,6.9,-,N/A,,Scattered Clouds,110,2013-09-08 04:56:00
11:16 PM,55.4,51.8,88,30.36,10.0,Calm,Calm,-,N/A,,Mostly Cloudy,0,2013-09-08 05:16:00
11:36 PM,55.4,51.8,88,30.35,10.0,Calm,Calm,-,N/A,,Scattered Clouds,0,2013-09-08 05:36:00
11:56 PM,55.4,50.0,82,30.35,10.0,Calm,Calm,-,N/A,,Scattered Clouds,0,2013-09-08 05:56:00